sensor_id;sensor_type;location;lat;lon;timestamp;temperature;humidity
4811;DHT22;2419;51.276;6.472;2022-08-11T00:01:09;20.70;99.90
4811;DHT22;2419;51.276;6.472;2022-08-11T00:03:45;20.60;99.90
4811;DHT22;2419;51.276;6.472;2022-08-11T00:06:23;20.50;99.90
4811;DHT22;2419;51.276;6.472;2022-08-11T00:08:53;20.50;99.90
4811;DHT22;2419;51.276;6.472;2022-08-11T00:11:31;20.50;99.90
4811;DHT22;2419;51.276;6.472;2022-08-11T00:14:01;20.50;99.90
4811;DHT22;2419;51.276;6.472;2022-08-11T00:16:32;20.40;99.90
4811;DHT22;2419;51.276;6.472;2022-08-11T00:19:01;20.40;99.90
4811;DHT22;2419;51.276;6.472;2022-08-11T00:21:29;20.40;99.90
4811;DHT22;2419;51.276;6.472;2022-08-11T00:24:19;20.30;99.90
4811;DHT22;2419;51.276;6.472;2022-08-11T00:26:48;20.20;99.90
4811;DHT22;2419;51.276;6.472;2022-08-11T00:29:18;20.10;99.90
4811;DHT22;2419;51.276;6.472;2022-08-11T00:31:50;20.10;60.00
4811;DHT22;2419;51.276;6.472;2022-08-11T00:34:21;20.00;1.00
4811;DHT22;2419;51.276;6.472;2022-08-11T00:36:52;20.10;1.00
4811;DHT22;2419;51.276;6.472;2022-08-11T00:39:23;20.00;99.90
4811;DHT22;2419;51.276;6.472;2022-08-11T00:42:05;20.00;99.90
4811;DHT22;2419;51.276;6.472;2022-08-11T00:44:44;20.00;99.90
4811;DHT22;2419;51.276;6.472;2022-08-11T00:47:23;19.80;99.90
4811;DHT22;2419;51.276;6.472;2022-08-11T00:50:07;19.80;99.90
4811;DHT22;2419;51.276;6.472;2022-08-11T00:53:06;19.60;99.90
4811;DHT22;2419;51.276;6.472;2022-08-11T01:02:18;19.50;72.80
4811;DHT22;2419;51.276;6.472;2022-08-11T01:05:22;19.50;1.00
4811;DHT22;2419;51.276;6.472;2022-08-11T01:17:57;19.40;99.90
4811;DHT22;2419;51.276;6.472;2022-08-11T01:21:04;19.40;99.90
4811;DHT22;2419;51.276;6.472;2022-08-11T01:24:18;19.20;31.80
4811;DHT22;2419;51.276;6.472;2022-08-11T01:27:12;19.00;99.90
4811;DHT22;2419;51.276;6.472;2022-08-11T01:42:52;18.40;1.00
4811;DHT22;2419;51.276;6.472;2022-08-11T01:45:45;18.40;1.00
4811;DHT22;2419;51.276;6.472;2022-08-11T01:48:21;18.40;1.00
4811;DHT22;2419;51.276;6.472;2022-08-11T01:51:07;18.40;14.50
4811;DHT22;2419;51.276;6.472;2022-08-11T01:53:52;18.30;38.20
4811;DHT22;2419;51.276;6.472;2022-08-11T01:56:33;18.30;27.80
4811;DHT22;2419;51.276;6.472;2022-08-11T01:59:12;18.20;26.40
4811;DHT22;2419;51.276;6.472;2022-08-11T02:04:55;18.10;57.40
4811;DHT22;2419;51.276;6.472;2022-08-11T02:07:32;18.00;74.90
4811;DHT22;2419;51.276;6.472;2022-08-11T02:10:22;18.00;79.30
4811;DHT22;2419;51.276;6.472;2022-08-11T02:13:33;17.90;67.30
4811;DHT22;2419;51.276;6.472;2022-08-11T02:16:12;17.80;74.90
4811;DHT22;2419;51.276;6.472;2022-08-11T02:18:49;17.80;92.00
4811;DHT22;2419;51.276;6.472;2022-08-11T02:21:43;17.90;90.00
4811;DHT22;2419;51.276;6.472;2022-08-11T02:24:51;17.90;62.30
4811;DHT22;2419;51.276;6.472;2022-08-11T02:27:24;17.80;80.70
4811;DHT22;2419;51.276;6.472;2022-08-11T02:29:58;17.80;79.10
4811;DHT22;2419;51.276;6.472;2022-08-11T02:32:36;17.70;85.20
4811;DHT22;2419;51.276;6.472;2022-08-11T02:35:27;17.70;95.60
4811;DHT22;2419;51.276;6.472;2022-08-11T02:38:15;17.60;95.20
4811;DHT22;2419;51.276;6.472;2022-08-11T02:40:49;17.50;91.20
4811;DHT22;2419;51.276;6.472;2022-08-11T02:43:28;17.50;95.60
4811;DHT22;2419;51.276;6.472;2022-08-11T02:46:06;17.50;94.90
4811;DHT22;2419;51.276;6.472;2022-08-11T02:48:58;17.40;90.90
4811;DHT22;2419;51.276;6.472;2022-08-11T02:52:01;17.30;99.10
4811;DHT22;2419;51.276;6.472;2022-08-11T02:54:36;17.20;99.90
4811;DHT22;2419;51.276;6.472;2022-08-11T02:57:10;17.10;99.90
4811;DHT22;2419;51.276;6.472;2022-08-11T02:59:46;17.00;99.90
4811;DHT22;2419;51.276;6.472;2022-08-11T03:02:28;17.10;99.90
4811;DHT22;2419;51.276;6.472;2022-08-11T03:05:06;17.00;99.90
4811;DHT22;2419;51.276;6.472;2022-08-11T03:07:50;16.90;99.90
4811;DHT22;2419;51.276;6.472;2022-08-11T03:10:27;16.80;99.90
4811;DHT22;2419;51.276;6.472;2022-08-11T03:13:03;17.00;96.90
4811;DHT22;2419;51.276;6.472;2022-08-11T03:16:08;17.00;97.70
4811;DHT22;2419;51.276;6.472;2022-08-11T03:19:02;17.00;98.30
4811;DHT22;2419;51.276;6.472;2022-08-11T03:21:40;16.90;99.90
4811;DHT22;2419;51.276;6.472;2022-08-11T03:24:38;16.80;99.90
4811;DHT22;2419;51.276;6.472;2022-08-11T03:27:10;16.80;99.90
4811;DHT22;2419;51.276;6.472;2022-08-11T03:29:46;16.60;99.90
4811;DHT22;2419;51.276;6.472;2022-08-11T03:32:25;16.70;99.90
4811;DHT22;2419;51.276;6.472;2022-08-11T03:34:58;16.80;99.90
4811;DHT22;2419;51.276;6.472;2022-08-11T03:37:39;16.70;99.90
4811;DHT22;2419;51.276;6.472;2022-08-11T03:40:37;16.60;99.90
4811;DHT22;2419;51.276;6.472;2022-08-11T03:43:42;16.50;99.90
4811;DHT22;2419;51.276;6.472;2022-08-11T03:46:34;16.40;99.90
4811;DHT22;2419;51.276;6.472;2022-08-11T03:49:11;16.30;99.90
4811;DHT22;2419;51.276;6.472;2022-08-11T03:51:51;16.20;99.90
4811;DHT22;2419;51.276;6.472;2022-08-11T03:54:28;16.10;99.90
4811;DHT22;2419;51.276;6.472;2022-08-11T03:57:41;16.20;99.90
4811;DHT22;2419;51.276;6.472;2022-08-11T04:01:02;16.20;99.90
4811;DHT22;2419;51.276;6.472;2022-08-11T04:07:17;16.30;99.90
4811;DHT22;2419;51.276;6.472;2022-08-11T04:10:24;16.10;99.90
4811;DHT22;2419;51.276;6.472;2022-08-11T04:13:32;16.10;99.90
4811;DHT22;2419;51.276;6.472;2022-08-11T04:16:36;16.10;99.90
4811;DHT22;2419;51.276;6.472;2022-08-11T04:22:39;16.00;99.90
4811;DHT22;2419;51.276;6.472;2022-08-11T04:25:28;16.10;99.90
4811;DHT22;2419;51.276;6.472;2022-08-11T04:31:37;16.10;99.90
4811;DHT22;2419;51.276;6.472;2022-08-11T04:34:36;15.90;99.90
4811;DHT22;2419;51.276;6.472;2022-08-11T04:40:53;16.10;99.90
4811;DHT22;2419;51.276;6.472;2022-08-11T04:49:55;16.30;99.90
4811;DHT22;2419;51.276;6.472;2022-08-11T04:53:09;16.40;99.90
4811;DHT22;2419;51.276;6.472;2022-08-11T04:56:10;16.40;99.90
4811;DHT22;2419;51.276;6.472;2022-08-11T04:59:19;16.50;99.90
4811;DHT22;2419;51.276;6.472;2022-08-11T05:05:22;16.50;99.90
4811;DHT22;2419;51.276;6.472;2022-08-11T05:11:15;17.50;99.90
4811;DHT22;2419;51.276;6.472;2022-08-11T05:13:51;19.00;67.40
4811;DHT22;2419;51.276;6.472;2022-08-11T05:16:41;20.10;1.00
4811;DHT22;2419;51.276;6.472;2022-08-11T05:19:31;21.00;99.90
4811;DHT22;2419;51.276;6.472;2022-08-11T05:22:18;21.80;99.90
4811;DHT22;2419;51.276;6.472;2022-08-11T05:25:06;22.00;99.90
4811;DHT22;2419;51.276;6.472;2022-08-11T05:28:21;22.20;99.90
4811;DHT22;2419;51.276;6.472;2022-08-11T05:31:14;22.70;99.90
4811;DHT22;2419;51.276;6.472;2022-08-11T05:34:08;23.50;92.80
4811;DHT22;2419;51.276;6.472;2022-08-11T05:37:01;23.10;1.00
4811;DHT22;2419;51.276;6.472;2022-08-11T05:39:54;22.70;1.00
4811;DHT22;2419;51.276;6.472;2022-08-11T05:42:47;21.90;10.70
4811;DHT22;2419;51.276;6.472;2022-08-11T05:45:35;21.20;59.50
4811;DHT22;2419;51.276;6.472;2022-08-11T05:48:33;21.10;99.90
4811;DHT22;2419;51.276;6.472;2022-08-11T05:51:20;21.00;99.90
4811;DHT22;2419;51.276;6.472;2022-08-11T05:54:22;21.00;1.00
4811;DHT22;2419;51.276;6.472;2022-08-11T05:57:18;21.00;99.90
4811;DHT22;2419;51.276;6.472;2022-08-11T06:00:09;21.60;69.20
4811;DHT22;2419;51.276;6.472;2022-08-11T06:02:41;22.60;99.90
4811;DHT22;2419;51.276;6.472;2022-08-11T06:05:11;23.20;40.10
4811;DHT22;2419;51.276;6.472;2022-08-11T06:07:40;23.00;99.90
4811;DHT22;2419;51.276;6.472;2022-08-11T06:10:25;23.10;75.80
4811;DHT22;2419;51.276;6.472;2022-08-11T06:12:54;23.00;41.60
4811;DHT22;2419;51.276;6.472;2022-08-11T06:15:24;23.60;1.00
4811;DHT22;2419;51.276;6.472;2022-08-11T06:17:54;23.10;99.90
4811;DHT22;2419;51.276;6.472;2022-08-11T06:20:24;22.90;99.90
4811;DHT22;2419;51.276;6.472;2022-08-11T06:23:00;22.70;99.90
4811;DHT22;2419;51.276;6.472;2022-08-11T06:25:30;22.60;99.90
4811;DHT22;2419;51.276;6.472;2022-08-11T06:27:59;22.30;99.90
4811;DHT22;2419;51.276;6.472;2022-08-11T06:30:36;22.20;99.90
4811;DHT22;2419;51.276;6.472;2022-08-11T06:33:11;22.20;99.90
4811;DHT22;2419;51.276;6.472;2022-08-11T06:36:02;22.10;99.90
4811;DHT22;2419;51.276;6.472;2022-08-11T06:38:48;22.20;99.90
4811;DHT22;2419;51.276;6.472;2022-08-11T06:41:23;22.30;99.90
4811;DHT22;2419;51.276;6.472;2022-08-11T06:44:13;22.20;99.90
4811;DHT22;2419;51.276;6.472;2022-08-11T06:46:44;22.40;99.90
4811;DHT22;2419;51.276;6.472;2022-08-11T06:49:17;22.50;99.90
4811;DHT22;2419;51.276;6.472;2022-08-11T06:52:05;22.50;99.90
4811;DHT22;2419;51.276;6.472;2022-08-11T06:54:55;22.60;99.90
4811;DHT22;2419;51.276;6.472;2022-08-11T06:57:32;22.60;99.90
4811;DHT22;2419;51.276;6.472;2022-08-11T07:00:19;22.80;99.90
4811;DHT22;2419;51.276;6.472;2022-08-11T07:03:02;22.90;1.00
4811;DHT22;2419;51.276;6.472;2022-08-11T07:05:44;23.00;99.90
4811;DHT22;2419;51.276;6.472;2022-08-11T07:08:43;23.20;90.80
4811;DHT22;2419;51.276;6.472;2022-08-11T07:11:59;23.20;1.00
4811;DHT22;2419;51.276;6.472;2022-08-11T07:14:55;23.40;1.00
4811;DHT22;2419;51.276;6.472;2022-08-11T07:17:44;23.50;46.80
4811;DHT22;2419;51.276;6.472;2022-08-11T07:20:30;23.30;54.50
4811;DHT22;2419;51.276;6.472;2022-08-11T07:23:31;23.20;52.90
4811;DHT22;2419;51.276;6.472;2022-08-11T07:26:19;23.40;50.00
4811;DHT22;2419;51.276;6.472;2022-08-11T07:29:06;23.50;34.30
4811;DHT22;2419;51.276;6.472;2022-08-11T07:31:39;23.70;25.40
4811;DHT22;2419;51.276;6.472;2022-08-11T07:34:14;23.80;33.40
4811;DHT22;2419;51.276;6.472;2022-08-11T07:36:48;23.80;34.30
4811;DHT22;2419;51.276;6.472;2022-08-11T07:39:20;23.90;27.40
4811;DHT22;2419;51.276;6.472;2022-08-11T07:41:51;23.90;28.10
4811;DHT22;2419;51.276;6.472;2022-08-11T07:44:20;23.90;29.40
4811;DHT22;2419;51.276;6.472;2022-08-11T07:46:58;24.10;25.60
4811;DHT22;2419;51.276;6.472;2022-08-11T07:49:46;24.20;44.70
4811;DHT22;2419;51.276;6.472;2022-08-11T07:52:33;24.30;45.90
4811;DHT22;2419;51.276;6.472;2022-08-11T07:55:10;24.30;46.60
4811;DHT22;2419;51.276;6.472;2022-08-11T07:57:42;24.40;48.80
4811;DHT22;2419;51.276;6.472;2022-08-11T08:00:47;24.60;60.00
4811;DHT22;2419;51.276;6.472;2022-08-11T08:03:42;24.70;59.90
4811;DHT22;2419;51.276;6.472;2022-08-11T08:06:31;24.90;57.50
4811;DHT22;2419;51.276;6.472;2022-08-11T08:09:19;24.90;63.40
4811;DHT22;2419;51.276;6.472;2022-08-11T08:12:07;24.90;62.80
4811;DHT22;2419;51.276;6.472;2022-08-11T08:14:54;25.10;67.70
4811;DHT22;2419;51.276;6.472;2022-08-11T08:17:41;25.20;69.10
4811;DHT22;2419;51.276;6.472;2022-08-11T08:20:39;25.20;70.00
4811;DHT22;2419;51.276;6.472;2022-08-11T08:23:10;25.30;70.50
4811;DHT22;2419;51.276;6.472;2022-08-11T08:25:40;25.50;71.50
4811;DHT22;2419;51.276;6.472;2022-08-11T08:28:13;25.60;69.80
4811;DHT22;2419;51.276;6.472;2022-08-11T08:30:42;25.60;71.70
4811;DHT22;2419;51.276;6.472;2022-08-11T08:33:17;25.50;72.80
4811;DHT22;2419;51.276;6.472;2022-08-11T08:35:49;25.60;73.30
4811;DHT22;2419;51.276;6.472;2022-08-11T08:38:22;25.60;70.80
4811;DHT22;2419;51.276;6.472;2022-08-11T08:40:51;25.70;71.70
4811;DHT22;2419;51.276;6.472;2022-08-11T08:43:24;25.80;70.50
4811;DHT22;2419;51.276;6.472;2022-08-11T08:45:54;25.90;72.30
4811;DHT22;2419;51.276;6.472;2022-08-11T08:48:25;26.10;70.70
4811;DHT22;2419;51.276;6.472;2022-08-11T08:51:00;26.20;71.80
4811;DHT22;2419;51.276;6.472;2022-08-11T08:54:08;26.40;70.90
4811;DHT22;2419;51.276;6.472;2022-08-11T08:56:39;26.70;71.60
4811;DHT22;2419;51.276;6.472;2022-08-11T08:59:10;26.70;69.50
4811;DHT22;2419;51.276;6.472;2022-08-11T09:01:42;26.60;68.70
4811;DHT22;2419;51.276;6.472;2022-08-11T09:04:12;26.70;69.10
4811;DHT22;2419;51.276;6.472;2022-08-11T09:06:46;26.80;67.70
4811;DHT22;2419;51.276;6.472;2022-08-11T09:09:19;27.10;68.60
4811;DHT22;2419;51.276;6.472;2022-08-11T09:11:49;27.30;69.20
4811;DHT22;2419;51.276;6.472;2022-08-11T09:14:23;27.80;68.30
4811;DHT22;2419;51.276;6.472;2022-08-11T09:17:11;28.60;66.10
4811;DHT22;2419;51.276;6.472;2022-08-11T09:19:40;29.70;66.00
4811;DHT22;2419;51.276;6.472;2022-08-11T09:22:08;30.20;64.10
4811;DHT22;2419;51.276;6.472;2022-08-11T09:24:55;30.70;63.40
4811;DHT22;2419;51.276;6.472;2022-08-11T09:27:41;31.50;63.00
4811;DHT22;2419;51.276;6.472;2022-08-11T09:30:18;31.80;60.70
4811;DHT22;2419;51.276;6.472;2022-08-11T09:32:47;32.10;58.20
4811;DHT22;2419;51.276;6.472;2022-08-11T09:35:15;32.20;59.90
4811;DHT22;2419;51.276;6.472;2022-08-11T09:37:43;32.30;56.30
4811;DHT22;2419;51.276;6.472;2022-08-11T09:40:29;31.90;55.80
4811;DHT22;2419;51.276;6.472;2022-08-11T09:43:04;32.10;56.00
4811;DHT22;2419;51.276;6.472;2022-08-11T09:45:54;32.70;55.60
4811;DHT22;2419;51.276;6.472;2022-08-11T09:48:24;32.70;56.10
4811;DHT22;2419;51.276;6.472;2022-08-11T09:50:54;33.20;53.90
4811;DHT22;2419;51.276;6.472;2022-08-11T09:53:25;33.30;53.40
4811;DHT22;2419;51.276;6.472;2022-08-11T09:56:09;33.40;53.10
4811;DHT22;2419;51.276;6.472;2022-08-11T09:58:56;33.70;53.20
4811;DHT22;2419;51.276;6.472;2022-08-11T10:01:30;32.80;51.00
4811;DHT22;2419;51.276;6.472;2022-08-11T10:04:02;33.20;51.40
4811;DHT22;2419;51.276;6.472;2022-08-11T10:06:31;33.80;51.90
4811;DHT22;2419;51.276;6.472;2022-08-11T10:09:21;33.40;51.60
4811;DHT22;2419;51.276;6.472;2022-08-11T10:11:54;33.70;51.10
4811;DHT22;2419;51.276;6.472;2022-08-11T10:14:25;33.90;50.20
4811;DHT22;2419;51.276;6.472;2022-08-11T10:17:16;33.90;49.90
4811;DHT22;2419;51.276;6.472;2022-08-11T10:19:46;34.10;49.70
4811;DHT22;2419;51.276;6.472;2022-08-11T10:22:32;33.60;48.90
4811;DHT22;2419;51.276;6.472;2022-08-11T10:25:20;33.70;49.30
4811;DHT22;2419;51.276;6.472;2022-08-11T10:28:07;33.20;49.70
4811;DHT22;2419;51.276;6.472;2022-08-11T10:30:56;33.30;50.10
4811;DHT22;2419;51.276;6.472;2022-08-11T10:33:45;33.20;50.20
4811;DHT22;2419;51.276;6.472;2022-08-11T10:36:31;33.20;49.50
4811;DHT22;2419;51.276;6.472;2022-08-11T10:39:01;33.60;48.90
4811;DHT22;2419;51.276;6.472;2022-08-11T10:41:30;33.80;48.70
4811;DHT22;2419;51.276;6.472;2022-08-11T10:44:37;34.20;48.10
4811;DHT22;2419;51.276;6.472;2022-08-11T10:47:06;34.50;47.70
4811;DHT22;2419;51.276;6.472;2022-08-11T10:49:56;34.70;47.40
4811;DHT22;2419;51.276;6.472;2022-08-11T10:52:44;35.40;46.70
4811;DHT22;2419;51.276;6.472;2022-08-11T10:55:30;35.40;45.40
4811;DHT22;2419;51.276;6.472;2022-08-11T10:58:17;35.30;45.60
4811;DHT22;2419;51.276;6.472;2022-08-11T11:01:03;35.10;46.00
4811;DHT22;2419;51.276;6.472;2022-08-11T11:03:32;35.00;46.60
4811;DHT22;2419;51.276;6.472;2022-08-11T11:06:07;34.60;45.60
4811;DHT22;2419;51.276;6.472;2022-08-11T11:09:02;34.30;45.00
4811;DHT22;2419;51.276;6.472;2022-08-11T11:11:37;34.90;44.40
4811;DHT22;2419;51.276;6.472;2022-08-11T11:14:29;35.10;44.50
4811;DHT22;2419;51.276;6.472;2022-08-11T11:17:28;35.60;43.90
4811;DHT22;2419;51.276;6.472;2022-08-11T11:20:17;35.10;44.50
4811;DHT22;2419;51.276;6.472;2022-08-11T11:23:11;35.10;44.30
4811;DHT22;2419;51.276;6.472;2022-08-11T11:26:00;35.60;44.20
4811;DHT22;2419;51.276;6.472;2022-08-11T11:32:20;35.30;43.50
4811;DHT22;2419;51.276;6.472;2022-08-11T11:35:03;34.80;43.30
4811;DHT22;2419;51.276;6.472;2022-08-11T11:37:38;34.70;44.00
4811;DHT22;2419;51.276;6.472;2022-08-11T11:40:28;35.00;43.30
4811;DHT22;2419;51.276;6.472;2022-08-11T11:42:58;35.00;44.10
4811;DHT22;2419;51.276;6.472;2022-08-11T11:45:27;35.20;44.10
4811;DHT22;2419;51.276;6.472;2022-08-11T11:47:58;35.10;43.90
4811;DHT22;2419;51.276;6.472;2022-08-11T11:50:28;35.30;43.80
4811;DHT22;2419;51.276;6.472;2022-08-11T11:53:00;35.50;43.20
4811;DHT22;2419;51.276;6.472;2022-08-11T11:55:30;36.00;43.70
4811;DHT22;2419;51.276;6.472;2022-08-11T11:58:00;35.90;43.70
4811;DHT22;2419;51.276;6.472;2022-08-11T12:00:48;36.00;43.90
4811;DHT22;2419;51.276;6.472;2022-08-11T12:03:36;35.90;43.50
4811;DHT22;2419;51.276;6.472;2022-08-11T12:06:06;35.80;44.60
4811;DHT22;2419;51.276;6.472;2022-08-11T12:08:36;35.70;43.60
4811;DHT22;2419;51.276;6.472;2022-08-11T12:11:09;35.50;43.30
4811;DHT22;2419;51.276;6.472;2022-08-11T12:13:58;35.70;44.00
4811;DHT22;2419;51.276;6.472;2022-08-11T12:16:28;35.70;43.10
4811;DHT22;2419;51.276;6.472;2022-08-11T12:19:04;35.60;43.60
4811;DHT22;2419;51.276;6.472;2022-08-11T12:21:34;35.80;43.30
4811;DHT22;2419;51.276;6.472;2022-08-11T12:24:04;36.40;43.70
4811;DHT22;2419;51.276;6.472;2022-08-11T12:26:57;36.40;42.60
4811;DHT22;2419;51.276;6.472;2022-08-11T12:29:45;36.30;43.30
4811;DHT22;2419;51.276;6.472;2022-08-11T12:32:23;35.10;42.70
4811;DHT22;2419;51.276;6.472;2022-08-11T12:34:52;34.20;43.40
4811;DHT22;2419;51.276;6.472;2022-08-11T12:37:29;34.30;43.30
4811;DHT22;2419;51.276;6.472;2022-08-11T12:40:00;34.60;44.60
4811;DHT22;2419;51.276;6.472;2022-08-11T12:43:13;35.50;44.40
4811;DHT22;2419;51.276;6.472;2022-08-11T12:46:11;35.50;43.50
4811;DHT22;2419;51.276;6.472;2022-08-11T12:48:44;35.90;43.00
4811;DHT22;2419;51.276;6.472;2022-08-11T12:51:33;36.10;43.40
4811;DHT22;2419;51.276;6.472;2022-08-11T12:54:59;35.70;42.70
4811;DHT22;2419;51.276;6.472;2022-08-11T12:57:32;35.10;44.60
4811;DHT22;2419;51.276;6.472;2022-08-11T13:00:20;35.30;44.30
4811;DHT22;2419;51.276;6.472;2022-08-11T13:03:08;35.00;44.50
4811;DHT22;2419;51.276;6.472;2022-08-11T13:05:56;35.40;45.00
4811;DHT22;2419;51.276;6.472;2022-08-11T13:08:38;35.80;44.30
4811;DHT22;2419;51.276;6.472;2022-08-11T13:11:08;35.90;44.00
4811;DHT22;2419;51.276;6.472;2022-08-11T13:14:16;36.20;44.80
4811;DHT22;2419;51.276;6.472;2022-08-11T13:16:47;36.60;44.30
4811;DHT22;2419;51.276;6.472;2022-08-11T13:19:30;35.80;43.70
4811;DHT22;2419;51.276;6.472;2022-08-11T13:22:00;34.70;44.50
4811;DHT22;2419;51.276;6.472;2022-08-11T13:24:33;34.30;44.00
4811;DHT22;2419;51.276;6.472;2022-08-11T13:27:02;34.10;44.70
4811;DHT22;2419;51.276;6.472;2022-08-11T13:29:31;33.90;44.10
4811;DHT22;2419;51.276;6.472;2022-08-11T13:32:03;33.60;43.70
4811;DHT22;2419;51.276;6.472;2022-08-11T13:34:32;33.60;44.50
4811;DHT22;2419;51.276;6.472;2022-08-11T13:37:09;33.30;44.00
4811;DHT22;2419;51.276;6.472;2022-08-11T13:39:42;33.20;44.10
4811;DHT22;2419;51.276;6.472;2022-08-11T13:42:14;33.20;45.00
4811;DHT22;2419;51.276;6.472;2022-08-11T13:44:46;33.40;45.00
4811;DHT22;2419;51.276;6.472;2022-08-11T13:47:16;33.20;45.00
4811;DHT22;2419;51.276;6.472;2022-08-11T13:49:44;33.30;44.40
4811;DHT22;2419;51.276;6.472;2022-08-11T13:52:14;33.30;44.80
4811;DHT22;2419;51.276;6.472;2022-08-11T13:54:46;33.20;45.40
4811;DHT22;2419;51.276;6.472;2022-08-11T13:57:15;33.20;45.30
4811;DHT22;2419;51.276;6.472;2022-08-11T14:00:07;33.00;44.10
4811;DHT22;2419;51.276;6.472;2022-08-11T14:02:56;32.90;44.80
4811;DHT22;2419;51.276;6.472;2022-08-11T14:05:26;32.90;45.20
4811;DHT22;2419;51.276;6.472;2022-08-11T14:07:59;33.30;44.30
4811;DHT22;2419;51.276;6.472;2022-08-11T14:10:30;33.20;43.90
4811;DHT22;2419;51.276;6.472;2022-08-11T14:13:01;33.50;44.90
4811;DHT22;2419;51.276;6.472;2022-08-11T14:15:48;33.50;44.70
4811;DHT22;2419;51.276;6.472;2022-08-11T14:18:20;33.20;44.00
4811;DHT22;2419;51.276;6.472;2022-08-11T14:20:53;33.20;43.50
4811;DHT22;2419;51.276;6.472;2022-08-11T14:23:55;33.50;44.00
4811;DHT22;2419;51.276;6.472;2022-08-11T14:26:28;33.60;43.90
4811;DHT22;2419;51.276;6.472;2022-08-11T14:29:00;33.30;43.50
4811;DHT22;2419;51.276;6.472;2022-08-11T14:31:30;33.10;44.00
4811;DHT22;2419;51.276;6.472;2022-08-11T14:34:03;33.20;44.30
4811;DHT22;2419;51.276;6.472;2022-08-11T14:36:34;33.00;44.10
4811;DHT22;2419;51.276;6.472;2022-08-11T14:39:07;33.10;44.00
4811;DHT22;2419;51.276;6.472;2022-08-11T14:41:38;33.20;44.20
4811;DHT22;2419;51.276;6.472;2022-08-11T14:44:41;33.20;45.20
4811;DHT22;2419;51.276;6.472;2022-08-11T14:47:29;33.30;43.60
4811;DHT22;2419;51.276;6.472;2022-08-11T14:50:00;33.20;43.70
4811;DHT22;2419;51.276;6.472;2022-08-11T14:52:43;33.00;43.80
4811;DHT22;2419;51.276;6.472;2022-08-11T14:55:13;32.90;43.10
4811;DHT22;2419;51.276;6.472;2022-08-11T14:58:00;33.10;43.50
4811;DHT22;2419;51.276;6.472;2022-08-11T15:00:29;32.70;43.50
4811;DHT22;2419;51.276;6.472;2022-08-11T15:02:58;33.00;43.20
4811;DHT22;2419;51.276;6.472;2022-08-11T15:05:44;33.00;42.80
4811;DHT22;2419;51.276;6.472;2022-08-11T15:08:26;33.00;43.90
4811;DHT22;2419;51.276;6.472;2022-08-11T15:11:15;33.20;44.70
4811;DHT22;2419;51.276;6.472;2022-08-11T15:14:05;33.30;43.50
4811;DHT22;2419;51.276;6.472;2022-08-11T15:16:35;33.00;43.50
4811;DHT22;2419;51.276;6.472;2022-08-11T15:19:23;32.90;43.70
4811;DHT22;2419;51.276;6.472;2022-08-11T15:22:08;32.70;43.50
4811;DHT22;2419;51.276;6.472;2022-08-11T15:24:57;32.80;43.60
4811;DHT22;2419;51.276;6.472;2022-08-11T15:27:26;33.10;44.40
4811;DHT22;2419;51.276;6.472;2022-08-11T15:30:15;33.10;44.10
4811;DHT22;2419;51.276;6.472;2022-08-11T15:33:04;32.80;44.00
4811;DHT22;2419;51.276;6.472;2022-08-11T15:35:51;32.40;43.90
4811;DHT22;2419;51.276;6.472;2022-08-11T15:38:43;32.00;44.70
4811;DHT22;2419;51.276;6.472;2022-08-11T15:41:14;32.10;44.60
4811;DHT22;2419;51.276;6.472;2022-08-11T15:44:29;32.10;44.10
4811;DHT22;2419;51.276;6.472;2022-08-11T15:47:36;32.10;43.80
4811;DHT22;2419;51.276;6.472;2022-08-11T15:50:10;32.10;44.40
4811;DHT22;2419;51.276;6.472;2022-08-11T15:52:48;32.20;44.00
4811;DHT22;2419;51.276;6.472;2022-08-11T15:55:21;32.30;44.10
4811;DHT22;2419;51.276;6.472;2022-08-11T15:57:52;32.10;44.00
4811;DHT22;2419;51.276;6.472;2022-08-11T16:00:40;31.80;44.40
4811;DHT22;2419;51.276;6.472;2022-08-11T16:03:39;31.80;44.70
4811;DHT22;2419;51.276;6.472;2022-08-11T16:06:36;31.90;44.60
4811;DHT22;2419;51.276;6.472;2022-08-11T16:09:17;31.80;44.90
4811;DHT22;2419;51.276;6.472;2022-08-11T16:11:48;31.80;44.20
4811;DHT22;2419;51.276;6.472;2022-08-11T16:14:19;31.80;44.60
4811;DHT22;2419;51.276;6.472;2022-08-11T16:17:06;31.90;44.80
4811;DHT22;2419;51.276;6.472;2022-08-11T16:19:35;31.90;44.60
4811;DHT22;2419;51.276;6.472;2022-08-11T16:22:07;31.90;44.10
4811;DHT22;2419;51.276;6.472;2022-08-11T16:24:38;31.90;44.80
4811;DHT22;2419;51.276;6.472;2022-08-11T16:27:35;31.70;44.10
4811;DHT22;2419;51.276;6.472;2022-08-11T16:30:06;31.60;45.10
4811;DHT22;2419;51.276;6.472;2022-08-11T16:32:38;31.60;45.30
4811;DHT22;2419;51.276;6.472;2022-08-11T16:35:10;31.50;45.30
4811;DHT22;2419;51.276;6.472;2022-08-11T16:37:56;31.40;44.90
4811;DHT22;2419;51.276;6.472;2022-08-11T16:40:44;31.40;44.70
4811;DHT22;2419;51.276;6.472;2022-08-11T16:43:17;31.40;45.20
4811;DHT22;2419;51.276;6.472;2022-08-11T16:46:04;31.40;44.00
4811;DHT22;2419;51.276;6.472;2022-08-11T16:48:55;31.40;44.70
4811;DHT22;2419;51.276;6.472;2022-08-11T16:51:25;31.30;45.20
4811;DHT22;2419;51.276;6.472;2022-08-11T16:53:54;31.30;44.50
4811;DHT22;2419;51.276;6.472;2022-08-11T16:56:35;31.30;44.90
4811;DHT22;2419;51.276;6.472;2022-08-11T16:59:08;31.20;44.80
4811;DHT22;2419;51.276;6.472;2022-08-11T17:01:51;31.10;44.50
4811;DHT22;2419;51.276;6.472;2022-08-11T17:04:27;31.00;44.50
4811;DHT22;2419;51.276;6.472;2022-08-11T17:07:14;31.00;44.90
4811;DHT22;2419;51.276;6.472;2022-08-11T17:10:18;30.90;45.80
4811;DHT22;2419;51.276;6.472;2022-08-11T17:13:25;30.70;45.50
4811;DHT22;2419;51.276;6.472;2022-08-11T17:15:59;30.70;45.00
4811;DHT22;2419;51.276;6.472;2022-08-11T17:18:41;30.80;44.70
4811;DHT22;2419;51.276;6.472;2022-08-11T17:21:14;30.90;45.00
4811;DHT22;2419;51.276;6.472;2022-08-11T17:23:46;30.70;45.10
4811;DHT22;2419;51.276;6.472;2022-08-11T17:26:16;30.60;45.70
4811;DHT22;2419;51.276;6.472;2022-08-11T17:28:47;30.50;44.90
4811;DHT22;2419;51.276;6.472;2022-08-11T17:31:19;30.40;45.30
4811;DHT22;2419;51.276;6.472;2022-08-11T17:34:07;30.30;45.10
4811;DHT22;2419;51.276;6.472;2022-08-11T17:36:54;30.30;45.80
4811;DHT22;2419;51.276;6.472;2022-08-11T17:39:25;30.20;45.40
4811;DHT22;2419;51.276;6.472;2022-08-11T17:41:55;30.20;45.60
4811;DHT22;2419;51.276;6.472;2022-08-11T17:44:43;30.10;45.70
4811;DHT22;2419;51.276;6.472;2022-08-11T17:47:31;30.00;45.70
4811;DHT22;2419;51.276;6.472;2022-08-11T17:50:30;29.90;45.30
4811;DHT22;2419;51.276;6.472;2022-08-11T17:53:00;29.80;45.50
4811;DHT22;2419;51.276;6.472;2022-08-11T17:55:47;29.70;45.80
4811;DHT22;2419;51.276;6.472;2022-08-11T17:58:35;29.70;45.70
4811;DHT22;2419;51.276;6.472;2022-08-11T18:01:32;29.60;45.70
4811;DHT22;2419;51.276;6.472;2022-08-11T18:04:10;29.50;46.50
4811;DHT22;2419;51.276;6.472;2022-08-11T18:06:39;29.30;46.70
4811;DHT22;2419;51.276;6.472;2022-08-11T18:09:12;29.20;46.80
4811;DHT22;2419;51.276;6.472;2022-08-11T18:12:00;29.20;46.90
4811;DHT22;2419;51.276;6.472;2022-08-11T18:14:48;29.10;47.10
4811;DHT22;2419;51.276;6.472;2022-08-11T18:17:36;28.90;47.20
4811;DHT22;2419;51.276;6.472;2022-08-11T18:20:24;28.80;47.20
4811;DHT22;2419;51.276;6.472;2022-08-11T18:23:13;28.60;47.80
4811;DHT22;2419;51.276;6.472;2022-08-11T18:26:15;28.60;48.00
4811;DHT22;2419;51.276;6.472;2022-08-11T18:29:03;28.40;47.90
4811;DHT22;2419;51.276;6.472;2022-08-11T18:31:53;28.30;47.90
4811;DHT22;2419;51.276;6.472;2022-08-11T18:34:53;28.20;48.00
4811;DHT22;2419;51.276;6.472;2022-08-11T18:37:44;28.10;48.10
4811;DHT22;2419;51.276;6.472;2022-08-11T18:40:32;28.00;48.20